createdAt,value
2023-02-26T00:01:33.151Z,77.97
2023-02-26T00:04:03.761Z,77.92
2023-02-26T00:06:35.074Z,78.10
2023-02-26T00:09:04.807Z,78.24
2023-02-26T00:11:33.508Z,78.12
2023-02-26T00:14:01.689Z,78.21
2023-02-26T00:16:36.325Z,78.36
2023-02-26T00:19:06.995Z,78.26
2023-02-26T00:21:36.072Z,77.82
2023-02-26T00:24:06.652Z,78.18
2023-02-26T00:26:35.671Z,78.58
2023-02-26T00:29:04.386Z,78.84
2023-02-26T00:31:32.423Z,79.16
2023-02-26T00:34:02.055Z,79.01
2023-02-26T00:36:42.678Z,79.18
2023-02-26T00:39:41.337Z,79.50
2023-02-26T00:42:09.604Z,79.58
2023-02-26T00:44:37.922Z,80.05
2023-02-26T00:47:38.661Z,80.28
2023-02-26T00:50:06.709Z,80.39
2023-02-26T00:52:43.356Z,80.46
2023-02-26T00:55:11.339Z,80.54
2023-02-26T00:57:39.665Z,80.91
2023-02-26T01:00:08.410Z,81.31
2023-02-26T01:02:37.636Z,81.37
2023-02-26T01:05:06.593Z,81.60
2023-02-26T01:07:59.786Z,81.79
2023-02-26T01:10:28.484Z,81.44
2023-02-26T01:12:56.971Z,81.32
2023-02-26T01:15:25.421Z,81.32
2023-02-26T01:18:07.123Z,81.03
2023-02-26T01:20:47.903Z,80.19
2023-02-26T01:23:21.376Z,80.00
2023-02-26T01:25:55.088Z,80.66
2023-02-26T01:28:23.376Z,81.12
2023-02-26T01:30:54.377Z,81.39
2023-02-26T01:33:26.225Z,81.44
2023-02-26T01:35:56.082Z,81.21
2023-02-26T01:38:27.433Z,81.27
2023-02-26T01:41:13.452Z,81.71
2023-02-26T01:43:57.935Z,81.73
2023-02-26T01:46:38.485Z,81.55
2023-02-26T01:49:14.375Z,81.71
2023-02-26T01:51:47.204Z,81.94
2023-02-26T01:54:20.107Z,82.14
2023-02-26T01:56:53.301Z,81.92
2023-02-26T01:59:24.678Z,82.26
2023-02-26T02:01:54.976Z,82.39
2023-02-26T02:04:24.196Z,81.85
2023-02-26T02:06:53.736Z,81.96
2023-02-26T02:09:22.001Z,81.99
2023-02-26T02:12:07.886Z,82.65
2023-02-26T02:14:45.295Z,83.21
2023-02-26T02:17:16.156Z,82.89
2023-02-26T02:19:51.745Z,82.79
2023-02-26T02:22:50.919Z,82.85
2023-02-26T02:25:33.965Z,83.14
2023-02-26T02:28:20.258Z,83.41
2023-02-26T02:31:09.187Z,83.44
2023-02-26T02:33:56.560Z,83.33
2023-02-26T02:36:49.084Z,83.52
2023-02-26T02:39:24.749Z,83.77
2023-02-26T02:41:58.313Z,83.79
2023-02-26T02:44:28.634Z,83.88
2023-02-26T02:46:59.539Z,83.82
2023-02-26T02:49:57.950Z,83.59
2023-02-26T02:52:42.776Z,83.77
2023-02-26T02:55:20.429Z,83.78
2023-02-26T02:58:00.697Z,83.76
2023-02-26T03:00:33.084Z,83.68
2023-02-26T03:03:11.987Z,83.97
2023-02-26T03:05:39.875Z,84.15
2023-02-26T03:08:12.181Z,83.72
2023-02-26T03:10:40.225Z,83.46
2023-02-26T03:13:18.998Z,83.43
2023-02-26T03:16:17.291Z,83.49
2023-02-26T03:18:55.883Z,83.68
2023-02-26T03:22:15.289Z,84.24
2023-02-26T03:24:57.913Z,84.71
2023-02-26T03:27:44.693Z,84.78
2023-02-26T03:30:39.146Z,84.19
2023-02-26T03:33:33.585Z,83.47
2023-02-26T03:36:11.446Z,83.47
2023-02-26T03:38:49.595Z,83.45
2023-02-26T03:41:25.884Z,83.70
2023-02-26T03:44:03.040Z,83.77
2023-02-26T03:46:35.818Z,84.06
2023-02-26T03:49:10.901Z,84.96
2023-02-26T03:51:41.844Z,84.97
2023-02-26T03:54:19.409Z,84.95
2023-02-26T03:56:48.699Z,84.65
2023-02-26T03:59:18.040Z,84.53
2023-02-26T04:01:49.415Z,84.51
2023-02-26T04:04:34.829Z,84.58
2023-02-26T04:07:03.437Z,84.51
2023-02-26T04:09:31.426Z,84.50
2023-02-26T04:11:59.632Z,84.04
2023-02-26T04:14:27.642Z,83.85
2023-02-26T04:16:55.811Z,83.92
2023-02-26T04:19:23.861Z,84.14
2023-02-26T04:21:51.705Z,84.32
2023-02-26T04:24:19.829Z,84.79
2023-02-26T04:26:47.734Z,84.65
2023-02-26T04:29:15.720Z,84.57
2023-02-26T04:31:43.792Z,84.31
2023-02-26T04:34:11.909Z,83.92
2023-02-26T04:36:39.819Z,84.08
2023-02-26T04:39:10.828Z,84.31
2023-02-26T04:41:39.361Z,84.09
2023-02-26T04:44:07.472Z,83.94
2023-02-26T04:46:35.528Z,83.91
2023-02-26T04:49:03.942Z,83.88
2023-02-26T04:51:31.821Z,84.15
2023-02-26T04:53:59.720Z,84.59
2023-02-26T04:56:28.605Z,84.92
2023-02-26T04:58:56.529Z,84.96
2023-02-26T05:01:24.600Z,84.89
2023-02-26T05:03:55.751Z,85.17
2023-02-26T05:06:32.004Z,85.51
2023-02-26T05:09:00.100Z,85.67
2023-02-26T05:11:31.599Z,85.61
2023-02-26T05:14:08.986Z,85.41
2023-02-26T05:16:36.954Z,84.92
2023-02-26T05:19:04.968Z,85.06
2023-02-26T05:21:32.943Z,85.22
2023-02-26T05:24:00.958Z,84.84
2023-02-26T05:26:29.064Z,85.11
2023-02-26T05:28:56.931Z,85.41
2023-02-26T05:31:25.131Z,84.94
2023-02-26T05:33:53.461Z,84.71
2023-02-26T05:36:21.590Z,84.64
2023-02-26T05:38:49.612Z,84.83
2023-02-26T05:41:17.705Z,84.75
2023-02-26T05:43:45.810Z,84.86
2023-02-26T05:46:14.475Z,85.26
2023-02-26T05:48:44.172Z,85.23
2023-02-26T05:51:13.548Z,85.20
2023-02-26T05:53:45.704Z,85.05
2023-02-26T05:56:17.897Z,84.81
2023-02-26T05:58:46.469Z,84.77
2023-02-26T06:01:35.178Z,84.64
2023-02-26T06:04:05.575Z,85.02
2023-02-26T06:06:33.870Z,85.14
2023-02-26T06:09:02.437Z,84.78
2023-02-26T06:11:32.984Z,85.31
2023-02-26T06:14:01.986Z,85.57
2023-02-26T06:16:30.198Z,85.53
2023-02-26T06:18:58.334Z,85.39
2023-02-26T06:21:26.350Z,85.48
2023-02-26T06:23:54.175Z,85.23
2023-02-26T06:26:23.805Z,85.11
2023-02-26T06:28:51.822Z,85.18
2023-02-26T06:31:19.780Z,85.31
2023-02-26T06:33:47.726Z,85.39
2023-02-26T06:36:15.672Z,85.82
2023-02-26T06:38:45.458Z,85.70
2023-02-26T06:41:13.944Z,85.75
2023-02-26T06:43:41.951Z,85.98
2023-02-26T06:46:10.054Z,85.83
2023-02-26T06:48:38.036Z,86.10
2023-02-26T06:51:07.446Z,85.67
2023-02-26T06:53:35.607Z,85.17
2023-02-26T06:56:04.126Z,85.14
2023-02-26T06:58:32.363Z,85.37
2023-02-26T07:01:03.380Z,85.52
2023-02-26T07:03:31.567Z,85.69
2023-02-26T07:06:14.001Z,85.31
2023-02-26T07:08:47.460Z,85.35
2023-02-26T07:11:15.398Z,85.52
2023-02-26T07:13:43.415Z,85.82
2023-02-26T07:16:12.536Z,85.92
2023-02-26T07:18:40.421Z,85.44
2023-02-26T07:21:08.297Z,85.10
2023-02-26T07:23:36.332Z,85.13
2023-02-26T07:26:04.326Z,85.66
2023-02-26T07:28:32.200Z,86.08
2023-02-26T07:31:00.135Z,85.91
2023-02-26T07:33:28.620Z,85.76
2023-02-26T07:35:56.591Z,85.59
2023-02-26T07:38:24.600Z,85.66
2023-02-26T07:40:55.479Z,85.85
2023-02-26T07:43:25.340Z,85.93
2023-02-26T07:45:54.307Z,85.59
2023-02-26T07:48:22.358Z,85.67
2023-02-26T07:50:53.155Z,85.79
2023-02-26T07:53:21.976Z,85.65
2023-02-26T07:55:49.954Z,85.65
2023-02-26T07:58:18.305Z,86.00
2023-02-26T08:00:46.444Z,86.02
2023-02-26T08:03:15.483Z,85.62
2023-02-26T08:05:43.390Z,85.38
2023-02-26T08:08:11.354Z,85.81
2023-02-26T08:10:42.234Z,85.95
2023-02-26T08:13:10.377Z,85.52
2023-02-26T08:15:38.264Z,85.38
2023-02-26T08:18:06.297Z,85.43
2023-02-26T08:20:34.242Z,85.75
2023-02-26T08:23:02.308Z,85.86
2023-02-26T08:25:30.351Z,85.88
2023-02-26T08:27:58.838Z,85.92
2023-02-26T08:30:26.946Z,85.94
2023-02-26T08:32:54.963Z,85.60
2023-02-26T08:35:23.136Z,85.42
2023-02-26T08:37:51.093Z,85.37
2023-02-26T08:40:19.095Z,85.72
2023-02-26T08:42:47.265Z,85.85
2023-02-26T08:45:15.374Z,85.89
2023-02-26T08:47:55.482Z,85.76
2023-02-26T08:50:26.516Z,85.82
2023-02-26T08:52:54.600Z,85.74
2023-02-26T08:55:23.570Z,85.72
2023-02-26T08:57:51.573Z,85.97
2023-02-26T09:00:19.889Z,85.63
2023-02-26T09:02:48.065Z,85.21
2023-02-26T09:05:17.282Z,85.53
2023-02-26T09:07:48.507Z,85.65
2023-02-26T09:10:19.785Z,85.96
2023-02-26T09:12:50.560Z,85.95
2023-02-26T09:15:18.795Z,86.24
2023-02-26T09:17:49.916Z,86.88
2023-02-26T09:20:18.310Z,86.68
2023-02-26T09:22:46.313Z,86.15
2023-02-26T09:25:15.387Z,85.73
2023-02-26T09:27:43.470Z,85.86
2023-02-26T09:30:12.312Z,85.93
2023-02-26T09:32:40.324Z,85.74
2023-02-26T09:35:08.737Z,86.04
2023-02-26T09:37:36.584Z,85.86
2023-02-26T09:40:04.926Z,85.92
2023-02-26T09:42:51.260Z,85.83
2023-02-26T09:45:27.526Z,86.03
2023-02-26T09:47:56.276Z,86.19
2023-02-26T09:50:40.989Z,86.39
2023-02-26T09:53:23.036Z,86.46
2023-02-26T09:55:53.784Z,86.28
2023-02-26T09:58:28.937Z,86.15
2023-02-26T10:01:27.878Z,86.18
2023-02-26T10:04:08.222Z,86.02
2023-02-26T10:06:51.258Z,85.96
2023-02-26T10:09:34.317Z,86.20
2023-02-26T10:12:19.379Z,86.52
2023-02-26T10:15:01.988Z,86.51
2023-02-26T10:17:41.829Z,86.41
2023-02-26T10:20:19.349Z,86.40
2023-02-26T10:22:53.360Z,86.10
2023-02-26T10:25:26.960Z,86.09
2023-02-26T10:28:18.454Z,86.21
2023-02-26T10:30:51.135Z,85.70
2023-02-26T10:33:23.206Z,85.68
2023-02-26T10:35:54.495Z,85.37
2023-02-26T10:38:30.393Z,85.37
2023-02-26T10:41:04.622Z,85.50
2023-02-26T10:43:39.364Z,85.42
2023-02-26T10:46:17.685Z,85.56
2023-02-26T10:49:07.467Z,85.87
2023-02-26T10:51:38.814Z,85.61
2023-02-26T10:54:19.618Z,85.44
2023-02-26T10:56:47.953Z,85.74
2023-02-26T10:59:16.828Z,86.01
2023-02-26T11:01:45.919Z,85.79
2023-02-26T11:04:20.237Z,85.97
2023-02-26T11:07:00.655Z,86.22
2023-02-26T11:09:44.199Z,86.22
2023-02-26T11:12:12.834Z,86.08
2023-02-26T11:14:42.737Z,85.99
2023-02-26T11:17:14.706Z,86.05
2023-02-26T11:19:52.042Z,85.95
2023-02-26T11:22:21.963Z,85.58
2023-02-26T11:24:51.985Z,85.68
2023-02-26T11:27:24.189Z,85.95
2023-02-26T11:29:58.050Z,85.86
2023-02-26T11:32:32.959Z,85.95
2023-02-26T11:35:00.974Z,86.13
2023-02-26T11:37:34.085Z,86.15
2023-02-26T11:40:18.193Z,85.92
2023-02-26T11:42:58.321Z,85.43
2023-02-26T11:45:26.612Z,85.77
2023-02-26T11:48:02.450Z,86.16
2023-02-26T11:50:32.258Z,86.20
2023-02-26T11:53:09.757Z,86.20
2023-02-26T11:55:44.562Z,86.12
2023-02-26T11:58:19.667Z,86.33
2023-02-26T12:00:49.736Z,86.56
2023-02-26T12:03:22.170Z,86.80
2023-02-26T12:05:53.340Z,87.07
2023-02-26T12:08:31.734Z,87.04
2023-02-26T12:11:25.484Z,86.84
2023-02-26T12:14:08.796Z,86.41
2023-02-26T12:16:45.678Z,86.75
2023-02-26T12:19:35.589Z,86.90
2023-02-26T12:22:14.532Z,86.83
2023-02-26T12:25:22.489Z,86.61
2023-02-26T12:28:18.482Z,86.66
2023-02-26T12:30:55.262Z,86.75
2023-02-26T12:33:29.069Z,87.02
2023-02-26T12:36:08.967Z,87.22
2023-02-26T12:38:42.771Z,87.33
2023-02-26T12:41:17.124Z,87.43
2023-02-26T12:43:51.082Z,87.36
2023-02-26T12:46:42.552Z,87.54
2023-02-26T12:49:46.836Z,87.45
2023-02-26T12:52:25.279Z,87.63
2023-02-26T12:55:08.881Z,87.84
2023-02-26T12:58:11.278Z,87.60
2023-02-26T13:01:14.394Z,87.18
2023-02-26T13:03:47.588Z,86.97
2023-02-26T13:06:21.324Z,87.00
2023-02-26T13:09:28.180Z,87.29
2023-02-26T13:12:06.141Z,86.77
2023-02-26T13:14:54.940Z,86.84
2023-02-26T13:17:43.367Z,86.58
2023-02-26T13:20:17.440Z,87.03
2023-02-26T13:22:56.760Z,87.58
2023-02-26T13:25:40.390Z,87.62
2023-02-26T13:28:33.296Z,87.69
2023-02-26T13:31:03.573Z,87.68
2023-02-26T13:33:34.701Z,87.64
2023-02-26T13:36:04.974Z,87.87
2023-02-26T13:38:53.449Z,87.73
2023-02-26T13:41:40.827Z,88.07
2023-02-26T13:44:27.344Z,88.06
2023-02-26T13:47:11.149Z,88.05
2023-02-26T13:50:19.493Z,88.28
2023-02-26T13:53:01.326Z,88.41
2023-02-26T13:55:40.688Z,88.68
2023-02-26T13:58:24.695Z,88.56
2023-02-26T14:01:32.251Z,88.57
2023-02-26T14:04:25.246Z,88.23
2023-02-26T14:07:16.029Z,87.98
2023-02-26T14:09:46.894Z,88.04
2023-02-26T14:12:15.827Z,88.11
2023-02-26T14:15:00.322Z,88.25
2023-02-26T14:17:35.327Z,88.23
2023-02-26T14:20:31.791Z,87.87
2023-02-26T14:23:32.436Z,87.98
2023-02-26T14:26:06.624Z,88.11
2023-02-26T14:28:43.089Z,87.77
2023-02-26T14:31:22.558Z,87.74
2023-02-26T14:33:57.091Z,87.77
2023-02-26T14:36:57.021Z,88.36
2023-02-26T14:39:30.686Z,88.54
2023-02-26T14:42:08.534Z,88.92
2023-02-26T14:44:44.472Z,88.58
2023-02-26T14:47:13.054Z,88.32
2023-02-26T14:49:46.370Z,88.61
2023-02-26T14:52:39.142Z,88.62
2023-02-26T14:55:19.942Z,88.89
2023-02-26T14:58:12.416Z,89.05
2023-02-26T15:00:47.409Z,89.05
2023-02-26T15:03:31.211Z,89.22
2023-02-26T15:06:01.854Z,89.15
2023-02-26T15:08:48.925Z,89.17
2023-02-26T15:11:45.667Z,89.05
2023-02-26T15:14:25.661Z,89.05
2023-02-26T15:17:03.284Z,89.21
2023-02-26T15:19:49.735Z,88.90
2023-02-26T15:22:23.610Z,89.18
2023-02-26T15:24:52.486Z,89.30
2023-02-26T15:27:21.448Z,89.26
2023-02-26T15:29:53.143Z,89.23
2023-02-26T15:32:31.566Z,89.40
2023-02-26T15:35:07.982Z,89.68
2023-02-26T15:37:35.989Z,89.78
2023-02-26T15:40:05.550Z,89.97
2023-02-26T15:42:38.531Z,90.09
2023-02-26T15:45:16.047Z,89.91
2023-02-26T15:47:44.095Z,89.77
2023-02-26T15:50:17.288Z,89.65
2023-02-26T15:52:51.300Z,89.79
2023-02-26T15:55:19.805Z,89.68
2023-02-26T15:57:48.737Z,89.80
2023-02-26T16:00:27.362Z,89.83
2023-02-26T16:02:59.795Z,90.03
2023-02-26T16:05:29.792Z,89.97
2023-02-26T16:07:57.902Z,89.76
2023-02-26T16:10:42.746Z,89.73
2023-02-26T16:13:16.637Z,89.74
2023-02-26T16:15:44.977Z,89.79
2023-02-26T16:18:22.052Z,90.03
2023-02-26T16:20:55.886Z,89.90
2023-02-26T16:23:29.568Z,89.98
2023-02-26T16:26:02.967Z,89.82
2023-02-26T16:28:45.527Z,89.88
2023-02-26T16:31:23.070Z,89.98
2023-02-26T16:34:01.181Z,90.19
2023-02-26T16:36:48.328Z,90.26
2023-02-26T16:39:23.016Z,89.58
2023-02-26T16:42:08.103Z,89.85
2023-02-26T16:45:01.836Z,89.97
2023-02-26T16:47:31.126Z,89.86
2023-02-26T16:49:59.181Z,89.75
2023-02-26T16:52:27.263Z,90.05
2023-02-26T16:55:00.985Z,89.95
2023-02-26T16:57:34.250Z,90.05
2023-02-26T17:00:09.584Z,90.17
2023-02-26T17:02:38.903Z,90.13
2023-02-26T17:05:22.659Z,90.50
2023-02-26T17:08:00.556Z,90.38
2023-02-26T17:10:35.368Z,90.21
2023-02-26T17:13:12.379Z,90.39
2023-02-26T17:15:41.138Z,90.53
2023-02-26T17:18:08.960Z,90.46
2023-02-26T17:20:38.404Z,90.55
2023-02-26T17:23:10.533Z,90.82
2023-02-26T17:25:42.210Z,90.79
2023-02-26T17:28:23.565Z,90.60
2023-02-26T17:30:52.558Z,90.65
2023-02-26T17:33:21.240Z,90.24
2023-02-26T17:35:49.928Z,90.32
2023-02-26T17:38:17.926Z,90.29
2023-02-26T17:40:47.783Z,90.36
2023-02-26T17:43:16.838Z,90.30
2023-02-26T17:45:44.929Z,90.47
2023-02-26T17:48:15.422Z,90.35
2023-02-26T17:50:54.928Z,90.49
2023-02-26T17:53:27.494Z,90.32
2023-02-26T17:55:56.643Z,90.47
2023-02-26T17:58:28.800Z,90.70
2023-02-26T18:00:57.453Z,90.89
2023-02-26T18:03:25.452Z,90.89
2023-02-26T18:05:55.707Z,90.86
2023-02-26T18:08:29.624Z,90.58
2023-02-26T18:10:57.853Z,90.56
2023-02-26T18:13:26.329Z,90.71
2023-02-26T18:15:56.648Z,90.75
2023-02-26T18:18:26.086Z,90.53
2023-02-26T18:20:54.746Z,90.06
2023-02-26T18:23:22.741Z,90.13
2023-02-26T18:25:52.940Z,90.39
2023-02-26T18:28:27.165Z,90.55
2023-02-26T18:30:58.703Z,90.07
2023-02-26T18:33:26.894Z,89.83
2023-02-26T18:35:57.213Z,90.12
2023-02-26T18:38:27.521Z,90.19
2023-02-26T18:40:55.958Z,90.34
2023-02-26T18:43:23.972Z,90.50
2023-02-26T18:45:52.522Z,90.61
2023-02-26T18:48:21.117Z,90.52
2023-02-26T18:50:49.223Z,90.52
2023-02-26T18:53:23.092Z,90.45
2023-02-26T18:55:52.133Z,90.51
2023-02-26T18:58:21.537Z,90.57
2023-02-26T19:00:49.685Z,90.79
2023-02-26T19:03:18.006Z,90.84
2023-02-26T19:05:46.015Z,90.94
2023-02-26T19:08:14.259Z,91.18
2023-02-26T19:10:42.447Z,91.05
2023-02-26T19:13:10.358Z,91.24
2023-02-26T19:15:38.273Z,91.02
2023-02-26T19:18:06.254Z,90.82
2023-02-26T19:20:34.271Z,90.79
2023-02-26T19:23:03.062Z,90.75
2023-02-26T19:25:32.080Z,90.85
2023-02-26T19:28:00.164Z,90.99
2023-02-26T19:30:28.277Z,90.87
2023-02-26T19:32:57.797Z,90.83
2023-02-26T19:35:29.875Z,90.99
2023-02-26T19:37:58.019Z,91.17
2023-02-26T19:40:28.193Z,91.09
2023-02-26T19:42:56.217Z,90.96
2023-02-26T19:45:24.237Z,91.05
2023-02-26T19:47:52.076Z,90.70
2023-02-26T19:50:22.468Z,90.84
2023-02-26T19:52:50.250Z,91.03
2023-02-26T19:55:18.234Z,91.06
2023-02-26T19:57:47.723Z,90.91
2023-02-26T20:00:16.875Z,90.90
2023-02-26T20:02:44.899Z,91.07
2023-02-26T20:05:17.090Z,90.90
2023-02-26T20:07:46.468Z,90.55
2023-02-26T20:10:15.904Z,90.66
2023-02-26T20:12:45.264Z,90.70
2023-02-26T20:15:14.019Z,90.61
2023-02-26T20:17:42.060Z,90.85
2023-02-26T20:20:10.769Z,90.98
2023-02-26T20:22:39.490Z,90.74
2023-02-26T20:25:07.900Z,90.66
2023-02-26T20:27:36.501Z,90.76
2023-02-26T20:30:05.769Z,90.92
2023-02-26T20:32:33.715Z,90.91
2023-02-26T20:35:01.787Z,90.86
2023-02-26T20:37:29.786Z,90.63
2023-02-26T20:39:57.632Z,90.46
2023-02-26T20:42:25.675Z,90.27
2023-02-26T20:44:53.487Z,90.74
2023-02-26T20:47:21.673Z,90.60
2023-02-26T20:49:49.539Z,90.30
2023-02-26T20:52:17.523Z,90.33
2023-02-26T20:54:45.653Z,90.36
2023-02-26T20:57:13.953Z,90.59
2023-02-26T20:59:42.025Z,90.74
2023-02-26T21:02:15.424Z,90.85
2023-02-26T21:04:43.561Z,90.86
2023-02-26T21:07:17.777Z,90.50
2023-02-26T21:09:48.028Z,90.30
2023-02-26T21:12:16.754Z,90.33
2023-02-26T21:14:44.759Z,90.31
2023-02-26T21:17:13.075Z,90.46
2023-02-26T21:19:41.343Z,90.43
2023-02-26T21:22:09.243Z,90.63
2023-02-26T21:24:37.350Z,90.58
2023-02-26T21:27:05.298Z,90.39
2023-02-26T21:29:33.140Z,90.46
2023-02-26T21:32:03.746Z,90.46
2023-02-26T21:34:34.280Z,90.67
2023-02-26T21:37:07.966Z,90.34
2023-02-26T21:39:36.722Z,90.44
2023-02-26T21:42:06.836Z,90.46
2023-02-26T21:44:35.759Z,90.61
2023-02-26T21:47:04.151Z,90.26
2023-02-26T21:49:32.395Z,89.91
2023-02-26T21:52:02.286Z,89.80
2023-02-26T21:54:30.770Z,89.90
2023-02-26T21:56:59.360Z,90.21
2023-02-26T21:59:27.258Z,90.23
2023-02-26T22:01:55.435Z,90.28
2023-02-26T22:04:23.485Z,90.10
2023-02-26T22:06:51.700Z,90.02
2023-02-26T22:09:20.022Z,89.93
2023-02-26T22:11:47.981Z,89.85
2023-02-26T22:14:15.898Z,89.90
2023-02-26T22:16:43.802Z,90.12
2023-02-26T22:19:11.797Z,90.01
2023-02-26T22:21:39.709Z,90.14
2023-02-26T22:24:08.048Z,90.09
2023-02-26T22:26:36.273Z,89.89
2023-02-26T22:29:04.256Z,89.87
2023-02-26T22:31:33.034Z,89.71
2023-02-26T22:34:01.168Z,89.74
2023-02-26T22:36:31.254Z,89.64
2023-02-26T22:38:59.314Z,89.63
2023-02-26T22:41:27.227Z,89.84
2023-02-26T22:43:55.603Z,89.76
2023-02-26T22:46:25.544Z,89.58
2023-02-26T22:48:53.831Z,89.78
2023-02-26T22:51:21.892Z,89.64
2023-02-26T22:53:50.361Z,89.79
2023-02-26T22:56:18.433Z,89.68
2023-02-26T22:58:47.458Z,89.78
2023-02-26T23:01:15.361Z,89.78
2023-02-26T23:03:43.354Z,89.60
2023-02-26T23:06:14.447Z,89.85
2023-02-26T23:08:42.474Z,90.10
2023-02-26T23:11:10.542Z,90.36
2023-02-26T23:13:38.889Z,90.22
2023-02-26T23:16:08.927Z,90.10
2023-02-26T23:18:38.062Z,90.21
2023-02-26T23:21:08.204Z,90.39
2023-02-26T23:23:36.413Z,90.39
2023-02-26T23:26:04.494Z,90.18
2023-02-26T23:28:33.259Z,90.33
2023-02-26T23:31:01.128Z,89.84
2023-02-26T23:33:29.191Z,89.98
2023-02-26T23:35:57.286Z,90.20
2023-02-26T23:38:25.124Z,90.24
2023-02-26T23:40:53.014Z,90.21
2023-02-26T23:43:20.978Z,90.31
2023-02-26T23:45:49.353Z,89.86
2023-02-26T23:48:17.349Z,89.47
2023-02-26T23:50:48.533Z,89.58
2023-02-26T23:53:16.415Z,89.72
2023-02-26T23:55:44.521Z,89.55
2023-02-26T23:58:12.367Z,89.74
